Kiamika, Canada
Current Conditions -  °F | °C
As of 4:00 PM on Tuesday 27 Jan 2015 (Local Time) from CYND Reporting Station
Broken Clouds Broken Clouds  
Wind Chill: -17°   Ceiling: 22000
Heat Index: -10°   Visibility: 15mi
Dew Point: -20°   Wind: 10mph
Humidity: 45%   Direction: 330°NNW
Pressure: 30.08"   Gusts: NA
Location:  46.42°N, 75.37°W
Report Text: CYND 272100Z 33009KT 15SM FEW140 BKN220 M10/M20 A3008 RMK AC2CI4 SLP192
Loading
Personal Weather Stations






























Interactive Weather Map New forecast layout! Learn more

10-Day Weather Forecast

Advertisements
Track Severe Weather on mobile